Raccoon, Illinois
Current Conditions -  °F | °C
As of 10:55 AM on Tuesday 27 Jan 2015 (Local Time) from KENL Reporting Station
Clear Clear  
Wind Chill: 32°   Ceiling: Unl
Heat Index: 38°   Visibility: 10mi
Dew Point: 31°   Wind: 7mph
Humidity: 76%   Direction: 340°NNW
Pressure: 30.14"   Gusts: NA
Location:  38.5134°N, 89.1673°W
Report Text: KENL 271655Z AUTO 34006KT 10SM CLR 03/M01 A3014 RMK AO2 T00321007
Loading
Personal Weather Stations






























Interactive Weather Map New forecast layout! Learn more

10-Day Weather Forecast

Advertisements
Track Severe Weather on mobile